Time;durP1;ratioP1;P1;durP2;ratioP2;P2;SDS_P1;SDS_P2;PMS_P1;PMS_P2;Temp;Humidity;BMP_temperature;BMP_pressure;BME280_temperature;BME280_humidity;BME280_pressure;Samples;Min_cycle;Max_cycle;Signal;HPM_P1;HPM_P2
2023/03/10 00:00:36;;;;;;;2.33;1.10;;;;;;;;;;5014477;28;20030;-76
2023/03/10 00:03:01;;;;;;;2.03;1.00;;;;;;;;;;4998179;28;20033;-76
2023/03/10 00:05:27;;;;;;;3.07;0.70;;;;;;;;;;5002568;28;20033;-76
2023/03/10 00:07:53;;;;;;;7.77;3.17;;;;;;;;;;4997905;28;20030;-75
2023/03/10 00:10:19;;;;;;;3.00;1.00;;;;;;;;;;4998078;28;20026;-76
2023/03/10 00:12:45;;;;;;;2.83;1.17;;;;;;;;;;4997899;28;20037;-75
2023/03/10 00:15:14;;;;;;;1.07;0.70;;;;;;;;;;5014567;28;20407;-76
2023/03/10 00:17:40;;;;;;;5.37;1.03;;;;;;;;;;5005039;28;20153;-75
2023/03/10 00:20:10;;;;;;;2.63;1.10;;;;;;;;;;5012739;28;20052;-76
2023/03/10 00:22:36;;;;;;;3.57;1.50;;;;;;;;;;5011834;28;20037;-75
2023/03/10 00:25:04;;;;;;;3.40;1.20;;;;;;;;;;5015842;28;20036;-76
2023/03/10 00:27:30;;;;;;;3.07;1.33;;;;;;;;;;5005431;28;20026;-75
2023/03/10 00:29:56;;;;;;;18.00;11.23;;;;;;;;;;4998940;28;20091;-76
2023/03/10 00:32:22;;;;;;;4.53;1.70;;;;;;;;;;5007127;28;20104;-76
2023/03/10 00:34:48;;;;;;;2.83;0.73;;;;;;;;;;5006236;28;20434;-75
2023/03/10 00:37:14;;;;;;;4.93;1.20;;;;;;;;;;5013761;28;20041;-75
2023/03/10 00:39:41;;;;;;;4.40;0.90;;;;;;;;;;5011132;28;20099;-76
2023/03/10 00:42:07;;;;;;;3.23;1.10;;;;;;;;;;5012928;28;20128;-75
2023/03/10 00:44:33;;;;;;;2.80;1.13;;;;;;;;;;5012181;28;20141;-76
2023/03/10 00:46:59;;;;;;;2.00;0.83;;;;;;;;;;5008919;28;20575;-75
2023/03/10 00:49:25;;;;;;;0.63;0.50;;;;;;;;;;5013423;28;20034;-76
2023/03/10 00:51:53;;;;;;;1.60;0.60;;;;;;;;;;4998452;28;20382;-76
2023/03/10 00:54:21;;;;;;;1.83;0.70;;;;;;;;;;5013348;28;20112;-75
2023/03/10 00:56:47;;;;;;;1.37;0.63;;;;;;;;;;5003222;28;20370;-76
2023/03/10 00:59:13;;;;;;;1.53;0.87;;;;;;;;;;4996747;28;20044;-76
2023/03/10 01:01:40;;;;;;;2.30;0.67;;;;;;;;;;5012509;28;20453;-75
2023/03/10 01:04:08;;;;;;;1.23;0.40;;;;;;;;;;5005067;28;20038;-75
2023/03/10 01:06:34;;;;;;;2.53;0.63;;;;;;;;;;5004755;28;20034;-75
2023/03/10 01:09:01;;;;;;;1.03;0.43;;;;;;;;;;5012443;28;20034;-75
2023/03/10 01:11:27;;;;;;;1.07;0.60;;;;;;;;;;5013962;28;20076;-75
2023/03/10 01:13:55;;;;;;;1.70;0.60;;;;;;;;;;5010033;28;20462;-75
2023/03/10 01:16:22;;;;;;;2.97;0.50;;;;;;;;;;5002439;28;20091;-75
2023/03/10 01:18:48;;;;;;;1.40;0.70;;;;;;;;;;5010467;28;20041;-75
2023/03/10 01:21:27;;;;;;;2.50;0.57;;;;;;;;;;5012213;28;20594;-75
2023/03/10 01:23:53;;;;;;;2.13;0.50;;;;;;;;;;5011251;28;20030;-75
2023/03/10 01:26:20;;;;;;;1.93;0.80;;;;;;;;;;4993766;28;20073;-75
2023/03/10 01:28:46;;;;;;;1.57;0.67;;;;;;;;;;4994139;28;20071;-75
2023/03/10 01:31:12;;;;;;;0.80;0.50;;;;;;;;;;5004832;28;20060;-75
2023/03/10 01:33:39;;;;;;;1.23;0.50;;;;;;;;;;5007147;28;20374;-75
2023/03/10 01:36:22;;;;;;;2.63;0.40;;;;;;;;;;5005041;28;20033;-75
2023/03/10 01:38:48;;;;;;;3.27;0.63;;;;;;;;;;5013237;28;20041;-75
2023/03/10 01:41:15;;;;;;;1.10;0.40;;;;;;;;;;5004793;28;20030;-75
2023/03/10 01:43:42;;;;;;;1.00;0.53;;;;;;;;;;5004908;28;20037;-75
2023/03/10 01:46:30;;;;;;;1.87;0.57;;;;;;;;;;5006001;28;20088;-75
2023/03/10 01:49:00;;;;;;;1.40;0.93;;;;;;;;;;5006433;28;20113;-75
2023/03/10 01:51:27;;;;;;;0.50;0.43;;;;;;;;;;5009515;28;20038;-75
2023/03/10 01:53:56;;;;;;;1.37;0.60;;;;;;;;;;5012250;28;20038;-75
2023/03/10 01:56:22;;;;;;;1.37;0.50;;;;;;;;;;5011011;28;20065;-76
2023/03/10 01:58:51;;;;;;;1.07;0.60;;;;;;;;;;4995974;28;20068;-76
2023/03/10 02:01:17;;;;;;;2.70;0.73;;;;;;;;;;5011391;28;20034;-76
2023/03/10 02:03:46;;;;;;;0.67;0.40;;;;;;;;;;5004477;28;20052;-75
2023/03/10 02:06:13;;;;;;;3.30;0.70;;;;;;;;;;5010877;28;20028;-75
2023/03/10 02:08:42;;;;;;;1.00;0.50;;;;;;;;;;5010927;28;20447;-75
2023/03/10 02:11:08;;;;;;;2.37;0.60;;;;;;;;;;5005980;28;20053;-76
2023/03/10 02:13:34;;;;;;;2.47;1.70;;;;;;;;;;5005053;28;20454;-76
2023/03/10 02:16:03;;;;;;;1.90;0.80;;;;;;;;;;5013299;28;20053;-75
2023/03/10 02:18:30;;;;;;;1.23;0.53;;;;;;;;;;5008668;28;20119;-75
2023/03/10 02:21:02;;;;;;;1.90;0.73;;;;;;;;;;4993991;28;20030;-75
2023/03/10 02:23:31;;;;;;;1.92;0.50;;;;;;;;;;5010872;28;20034;-75
2023/03/10 02:26:04;;;;;;;1.83;0.43;;;;;;;;;;5010869;28;20034;-75
2023/03/10 02:28:30;;;;;;;1.63;0.33;;;;;;;;;;5010733;28;20536;-75
2023/03/10 02:30:57;;;;;;;1.20;0.40;;;;;;;;;;4995517;28;20038;-75
2023/03/10 02:33:25;;;;;;;1.90;0.50;;;;;;;;;;4995380;28;20038;-75
2023/03/10 02:35:51;;;;;;;1.13;0.33;;;;;;;;;;4993861;28;20030;-74
2023/03/10 02:38:17;;;;;;;2.70;0.53;;;;;;;;;;5008613;28;20048;-74
2023/03/10 02:40:48;;;;;;;2.77;0.43;;;;;;;;;;5011521;28;20038;-74
2023/03/10 02:43:13;;;;;;;4.03;0.80;;;;;;;;;;4993109;28;20034;-74
2023/03/10 02:45:42;;;;;;;5.17;1.33;;;;;;;;;;5012038;28;20034;-74
2023/03/10 02:48:09;;;;;;;1.57;0.83;;;;;;;;;;5010986;28;20029;-75
2023/03/10 02:50:37;;;;;;;5.83;1.00;;;;;;;;;;5005877;28;20077;-74
2023/03/10 02:53:06;;;;;;;8.23;1.53;;;;;;;;;;5015523;28;20041;-75
2023/03/10 02:55:32;;;;;;;9.43;1.23;;;;;;;;;;5013611;28;20056;-75
2023/03/10 02:58:01;;;;;;;11.03;2.00;;;;;;;;;;5014417;28;20030;-75
2023/03/10 03:00:27;;;;;;;8.13;1.13;;;;;;;;;;4996714;28;20030;-75
2023/03/10 03:02:53;;;;;;;14.20;2.07;;;;;;;;;;5013815;28;20022;-75
2023/03/10 03:05:19;;;;;;;7.10;1.17;;;;;;;;;;5016208;28;20033;-75
2023/03/10 03:07:45;;;;;;;7.67;1.63;;;;;;;;;;5017523;28;20402;-75
2023/03/10 03:10:11;;;;;;;6.70;1.93;;;;;;;;;;5000514;28;20033;-74
2023/03/10 03:12:37;;;;;;;9.53;1.70;;;;;;;;;;5017555;28;20033;-74
2023/03/10 03:15:04;;;;;;;12.77;2.03;;;;;;;;;;4999952;28;20046;-75
2023/03/10 03:17:32;;;;;;;7.37;1.53;;;;;;;;;;5017936;28;20037;-75
2023/03/10 03:19:58;;;;;;;7.63;1.87;;;;;;;;;;5017020;28;20030;-75
2023/03/10 03:22:24;;;;;;;8.07;1.87;;;;;;;;;;5001984;28;20030;-75
2023/03/10 03:24:50;;;;;;;11.67;2.43;;;;;;;;;;5003995;28;20022;-75
2023/03/10 03:27:16;;;;;;;13.07;2.17;;;;;;;;;;5017021;28;20080;-75
2023/03/10 03:29:42;;;;;;;11.97;2.53;;;;;;;;;;5012495;28;20030;-75
2023/03/10 03:32:08;;;;;;;17.43;2.60;;;;;;;;;;4999569;28;20458;-75
2023/03/10 03:34:34;;;;;;;11.07;2.37;;;;;;;;;;5017096;28;20029;-75
2023/03/10 03:37:00;;;;;;;14.33;2.57;;;;;;;;;;5016885;28;20101;-75
2023/03/10 03:39:26;;;;;;;21.47;3.37;;;;;;;;;;5016949;28;20026;-75
2023/03/10 03:41:56;;;;;;;20.07;2.90;;;;;;;;;;5016701;28;20037;-75
2023/03/10 03:44:24;;;;;;;13.37;1.87;;;;;;;;;;5015761;28;20107;-75
2023/03/10 03:46:50;;;;;;;9.47;1.63;;;;;;;;;;5013896;28;20030;-75
2023/03/10 03:49:18;;;;;;;12.97;2.17;;;;;;;;;;4997346;28;20292;-75
2023/03/10 03:51:44;;;;;;;9.43;1.93;;;;;;;;;;4999492;28;20026;-75
2023/03/10 03:54:11;;;;;;;10.37;1.43;;;;;;;;;;5008558;28;20026;-74
2023/03/10 03:56:37;;;;;;;11.53;1.80;;;;;;;;;;5016708;28;20501;-75
2023/03/10 03:59:03;;;;;;;8.73;1.53;;;;;;;;;;5015679;28;20026;-75
2023/03/10 04:01:29;;;;;;;9.63;1.70;;;;;;;;;;5015783;28;20466;-75
2023/03/10 04:03:55;;;;;;;10.50;1.10;;;;;;;;;;5015493;28;20109;-75
2023/03/10 04:06:23;;;;;;;9.33;1.53;;;;;;;;;;5015651;28;20108;-75
2023/03/10 04:08:49;;;;;;;7.23;1.60;;;;;;;;;;4999097;28;20080;-74
2023/03/10 04:11:18;;;;;;;5.17;0.93;;;;;;;;;;4999318;28;20116;-75
2023/03/10 04:13:44;;;;;;;6.67;1.87;;;;;;;;;;5016250;28;20100;-75
2023/03/10 04:16:10;;;;;;;7.87;1.30;;;;;;;;;;4985801;28;20113;-75
2023/03/10 04:18:36;;;;;;;9.23;1.87;;;;;;;;;;5015514;28;20033;-75
2023/03/10 04:21:02;;;;;;;9.70;2.37;;;;;;;;;;4998976;28;20069;-75
2023/03/10 04:23:28;;;;;;;10.43;1.60;;;;;;;;;;5015032;28;20045;-75
2023/03/10 04:25:54;;;;;;;9.53;3.30;;;;;;;;;;5014827;28;20026;-75
2023/03/10 04:28:20;;;;;;;6.50;1.30;;;;;;;;;;5011329;28;20407;-75
2023/03/10 04:30:47;;;;;;;9.13;2.53;;;;;;;;;;5014917;28;20749;-75
2023/03/10 04:33:13;;;;;;;6.70;1.47;;;;;;;;;;5016168;28;20323;-75
2023/03/10 04:35:42;;;;;;;6.43;1.63;;;;;;;;;;5015286;28;20053;-75
2023/03/10 04:38:08;;;;;;;6.53;1.60;;;;;;;;;;5014813;28;20026;-75
2023/03/10 04:40:35;;;;;;;5.90;1.53;;;;;;;;;;5015083;28;20113;-75
2023/03/10 04:43:01;;;;;;;5.90;1.40;;;;;;;;;;4998144;28;20084;-75
2023/03/10 04:45:30;;;;;;;6.03;1.53;;;;;;;;;;4998318;28;20022;-75
2023/03/10 04:47:56;;;;;;;6.63;1.10;;;;;;;;;;5000815;28;20084;-75
2023/03/10 04:50:24;;;;;;;4.00;1.37;;;;;;;;;;4998791;28;20026;-75
2023/03/10 04:52:50;;;;;;;5.00;1.20;;;;;;;;;;4998112;28;20034;-75
2023/03/10 04:55:18;;;;;;;6.20;0.87;;;;;;;;;;5013452;28;20034;-75
2023/03/10 04:57:46;;;;;;;7.60;1.30;;;;;;;;;;5012435;28;20126;-75
2023/03/10 05:00:12;;;;;;;8.97;1.40;;;;;;;;;;4998393;28;20030;-75
2023/03/10 05:02:39;;;;;;;6.50;1.30;;;;;;;;;;5015422;28;20040;-75
2023/03/10 05:05:05;;;;;;;10.63;1.30;;;;;;;;;;4998334;28;20034;-75
2023/03/10 05:07:34;;;;;;;8.93;1.70;;;;;;;;;;4995021;28;20037;-74
2023/03/10 05:10:02;;;;;;;8.10;1.60;;;;;;;;;;5013166;28;20049;-75
2023/03/10 05:12:28;;;;;;;13.37;2.20;;;;;;;;;;4998743;28;20030;-75
2023/03/10 05:14:54;;;;;;;7.03;1.97;;;;;;;;;;5016475;28;20030;-75
2023/03/10 05:17:20;;;;;;;8.07;2.40;;;;;;;;;;5014634;28;20034;-75
2023/03/10 05:19:46;;;;;;;7.93;2.23;;;;;;;;;;5014895;28;20358;-75
2023/03/10 05:22:12;;;;;;;8.93;2.60;;;;;;;;;;5015191;28;20030;-75
2023/03/10 05:24:38;;;;;;;7.73;2.30;;;;;;;;;;5014056;28;20049;-75
2023/03/10 05:27:04;;;;;;;10.33;2.23;;;;;;;;;;4997332;28;20451;-75
2023/03/10 05:29:32;;;;;;;14.17;3.10;;;;;;;;;;4998155;28;20018;-75
2023/03/10 05:31:58;;;;;;;11.87;3.43;;;;;;;;;;5006899;28;20104;-75
2023/03/10 05:34:25;;;;;;;11.63;3.27;;;;;;;;;;4996938;28;20446;-75
2023/03/10 05:36:52;;;;;;;11.90;2.90;;;;;;;;;;5014676;28;20088;-75
2023/03/10 05:39:18;;;;;;;7.93;2.30;;;;;;;;;;5014528;28;20069;-75
2023/03/10 05:41:44;;;;;;;14.97;3.03;;;;;;;;;;5013975;28;20402;-75
2023/03/10 05:44:10;;;;;;;9.93;3.60;;;;;;;;;;5000269;28;20081;-75
2023/03/10 05:46:38;;;;;;;12.53;2.93;;;;;;;;;;5013996;28;20469;-75
2023/03/10 05:49:04;;;;;;;13.13;3.80;;;;;;;;;;4997027;28;20060;-75
2023/03/10 05:51:32;;;;;;;13.47;3.33;;;;;;;;;;5014244;28;20033;-75
2023/03/10 05:53:58;;;;;;;11.87;3.63;;;;;;;;;;4997382;28;20026;-75
2023/03/10 05:56:26;;;;;;;12.57;4.13;;;;;;;;;;5015099;28;20113;-75
2023/03/10 05:58:52;;;;;;;16.73;5.43;;;;;;;;;;5013850;28;20030;-75
2023/03/10 06:01:19;;;;;;;15.77;4.00;;;;;;;;;;4997465;28;20375;-75
2023/03/10 06:03:45;;;;;;;13.23;3.00;;;;;;;;;;4997334;28;20022;-75
2023/03/10 06:06:11;;;;;;;16.33;3.80;;;;;;;;;;5013133;28;20041;-75
2023/03/10 06:08:40;;;;;;;19.87;5.30;;;;;;;;;;4995887;28;20478;-75
2023/03/10 06:11:06;;;;;;;13.67;3.37;;;;;;;;;;5010720;28;20058;-75
2023/03/10 06:13:35;;;;;;;12.50;5.00;;;;;;;;;;5013600;28;20145;-75
2023/03/10 06:16:05;;;;;;;9.33;2.93;;;;;;;;;;5014421;28;20101;-75
2023/03/10 06:18:34;;;;;;;24.07;12.47;;;;;;;;;;5012595;28;20125;-75
2023/03/10 06:21:03;;;;;;;13.57;4.10;;;;;;;;;;5014449;28;20065;-75
2023/03/10 06:23:29;;;;;;;11.77;3.07;;;;;;;;;;4997422;28;20042;-75
2023/03/10 06:25:59;;;;;;;14.73;4.67;;;;;;;;;;5014893;28;20418;-75
2023/03/10 06:28:26;;;;;;;13.87;4.90;;;;;;;;;;5012484;28;20450;-75
2023/03/10 06:30:55;;;;;;;11.67;3.03;;;;;;;;;;5013131;28;20101;-75
2023/03/10 06:33:21;;;;;;;13.83;3.27;;;;;;;;;;5013615;28;20057;-75
2023/03/10 06:35:47;;;;;;;10.77;3.63;;;;;;;;;;5014157;28;20066;-75
2023/03/10 06:38:13;;;;;;;10.17;2.77;;;;;;;;;;5014403;28;20049;-75
2023/03/10 06:40:42;;;;;;;12.97;3.87;;;;;;;;;;5016585;28;20061;-75
2023/03/10 06:43:08;;;;;;;11.43;3.07;;;;;;;;;;5016609;28;20450;-75
2023/03/10 06:45:33;;;;;;;10.57;3.50;;;;;;;;;;5017656;28;20022;-75
2023/03/10 06:47:59;;;;;;;13.47;3.30;;;;;;;;;;5000093;28;20026;-75
2023/03/10 06:50:25;;;;;;;11.83;3.70;;;;;;;;;;4997778;28;20061;-75
2023/03/10 06:52:51;;;;;;;12.23;3.63;;;;;;;;;;4993236;28;20046;-75
2023/03/10 06:55:20;;;;;;;14.63;2.83;;;;;;;;;;5012258;28;20511;-75
2023/03/10 06:57:46;;;;;;;8.43;2.80;;;;;;;;;;5012152;28;20029;-75
2023/03/10 07:00:14;;;;;;;9.77;2.70;;;;;;;;;;5007155;28;20080;-75
2023/03/10 07:02:40;;;;;;;11.70;2.30;;;;;;;;;;4997285;28;20129;-75
2023/03/10 07:05:09;;;;;;;12.70;2.90;;;;;;;;;;4997865;28;20115;-75
2023/03/10 07:07:35;;;;;;;7.33;2.77;;;;;;;;;;5012182;28;21645;-75
2023/03/10 07:10:01;;;;;;;7.07;1.90;;;;;;;;;;4994796;28;20037;-75
2023/03/10 07:12:27;;;;;;;8.17;2.80;;;;;;;;;;5012824;28;20371;-74
2023/03/10 07:14:53;;;;;;;8.57;1.80;;;;;;;;;;5014313;28;20037;-75
2023/03/10 07:17:21;;;;;;;4.83;1.40;;;;;;;;;;5012694;28;20068;-76
2023/03/10 07:19:47;;;;;;;3.17;1.57;;;;;;;;;;5013839;28;20096;-75
2023/03/10 07:22:13;;;;;;;3.07;1.00;;;;;;;;;;5001903;28;20042;-75
2023/03/10 07:24:39;;;;;;;4.97;1.80;;;;;;;;;;5010467;28;20057;-75
2023/03/10 07:27:06;;;;;;;8.83;2.20;;;;;;;;;;5013175;28;20088;-75
2023/03/10 07:29:32;;;;;;;9.97;2.00;;;;;;;;;;5014915;28;20044;-74
2023/03/10 07:31:58;;;;;;;7.63;2.73;;;;;;;;;;5011156;28;20042;-74
2023/03/10 07:34:24;;;;;;;10.27;3.07;;;;;;;;;;5012828;28;20034;-74
2023/03/10 07:36:50;;;;;;;9.07;3.70;;;;;;;;;;5009662;28;20603;-75
2023/03/10 07:39:16;;;;;;;6.93;2.30;;;;;;;;;;5012751;28;20038;-75
2023/03/10 07:41:42;;;;;;;6.93;1.70;;;;;;;;;;5011099;28;20462;-75
2023/03/10 07:44:08;;;;;;;4.07;1.40;;;;;;;;;;4996465;28;20061;-73
2023/03/10 07:46:34;;;;;;;7.03;2.30;;;;;;;;;;5008386;28;20037;-75
2023/03/10 07:49:03;;;;;;;5.87;1.50;;;;;;;;;;5009577;28;20038;-74
2023/03/10 07:51:30;;;;;;;7.23;2.00;;;;;;;;;;5014429;28;20045;-75
2023/03/10 07:53:56;;;;;;;8.70;2.43;;;;;;;;;;5007277;28;20041;-75
2023/03/10 07:56:22;;;;;;;7.63;1.87;;;;;;;;;;5007115;28;20587;-75
2023/03/10 07:58:48;;;;;;;9.60;1.70;;;;;;;;;;4999870;28;20037;-74
2023/03/10 08:01:16;;;;;;;5.77;2.00;;;;;;;;;;5014551;28;20466;-75
2023/03/10 08:03:42;;;;;;;6.73;1.70;;;;;;;;;;5008923;28;20486;-75
2023/03/10 08:06:08;;;;;;;4.90;1.90;;;;;;;;;;5014226;28;20037;-75
2023/03/10 08:08:34;;;;;;;4.87;1.63;;;;;;;;;;4996251;28;20026;-75
2023/03/10 08:11:04;;;;;;;8.93;1.87;;;;;;;;;;5010433;28;20061;-75
2023/03/10 08:13:30;;;;;;;6.90;2.30;;;;;;;;;;5005681;28;20041;-74
2023/03/10 08:15:58;;;;;;;11.43;2.43;;;;;;;;;;4999761;28;20061;-74
2023/03/10 08:18:25;;;;;;;8.90;1.33;;;;;;;;;;4998809;28;20025;-74
2023/03/10 08:20:53;;;;;;;4.20;1.50;;;;;;;;;;5004714;28;20038;-75
2023/03/10 08:23:19;;;;;;;7.60;1.83;;;;;;;;;;5011332;28;20041;-74
2023/03/10 08:25:45;;;;;;;7.73;2.00;;;;;;;;;;5008627;28;20034;-74
2023/03/10 08:28:13;;;;;;;7.10;1.80;;;;;;;;;;5011707;28;20036;-75
2023/03/10 08:30:39;;;;;;;6.80;1.60;;;;;;;;;;4994458;28;20038;-75
2023/03/10 08:33:09;;;;;;;10.47;2.27;;;;;;;;;;5005664;28;20056;-75
2023/03/10 08:35:35;;;;;;;9.17;1.80;;;;;;;;;;5007840;28;20033;-75
2023/03/10 08:38:01;;;;;;;4.90;1.60;;;;;;;;;;5008809;28;20030;-75
2023/03/10 08:40:27;;;;;;;8.03;2.00;;;;;;;;;;5006504;28;20033;-75
2023/03/10 08:42:53;;;;;;;11.13;2.77;;;;;;;;;;5011618;28;20041;-76
2023/03/10 08:45:19;;;;;;;21.37;3.20;;;;;;;;;;5008866;28;20032;-75
2023/03/10 08:47:45;;;;;;;11.67;2.43;;;;;;;;;;5005275;28;20036;-75
2023/03/10 08:50:12;;;;;;;9.23;1.90;;;;;;;;;;5008233;28;20021;-75
2023/03/10 08:52:39;;;;;;;13.73;2.33;;;;;;;;;;5009553;28;20022;-75
2023/03/10 08:55:05;;;;;;;11.17;2.23;;;;;;;;;;5012983;28;20470;-76
2023/03/10 08:57:32;;;;;;;9.53;2.03;;;;;;;;;;4998101;28;20083;-75
2023/03/10 08:59:58;;;;;;;9.03;2.03;;;;;;;;;;4995306;28;20354;-76
2023/03/10 09:02:25;;;;;;;9.03;1.93;;;;;;;;;;5014273;28;20358;-76
2023/03/10 09:04:51;;;;;;;8.23;1.70;;;;;;;;;;5015125;28;20022;-75
2023/03/10 09:07:17;;;;;;;7.03;1.80;;;;;;;;;;5014507;28;20534;-76
2023/03/10 09:09:46;;;;;;;6.00;1.40;;;;;;;;;;5014371;28;20435;-75
2023/03/10 09:12:12;;;;;;;6.97;1.27;;;;;;;;;;5014663;28;20371;-76
2023/03/10 09:14:38;;;;;;;9.63;2.10;;;;;;;;;;5014208;28;20032;-76
2023/03/10 09:17:04;;;;;;;6.30;1.50;;;;;;;;;;5014347;28;20053;-76
2023/03/10 09:19:30;;;;;;;6.83;1.30;;;;;;;;;;5012473;28;20036;-76
2023/03/10 09:21:58;;;;;;;9.00;1.73;;;;;;;;;;4998076;28;20113;-76
2023/03/10 09:24:24;;;;;;;6.50;2.40;;;;;;;;;;5015638;28;20030;-75
2023/03/10 09:26:50;;;;;;;8.20;1.50;;;;;;;;;;5013395;28;20439;-75
2023/03/10 09:29:19;;;;;;;9.95;1.65;;;;;;;;;;5014685;28;20032;-75
2023/03/10 09:31:46;;;;;;;7.53;1.63;;;;;;;;;;5012207;28;20023;-76
2023/03/10 09:34:13;;;;;;;6.07;1.47;;;;;;;;;;5011270;28;20102;-75
2023/03/10 09:36:39;;;;;;;10.80;2.13;;;;;;;;;;5015353;28;20053;-76
2023/03/10 09:39:05;;;;;;;8.33;1.70;;;;;;;;;;4997620;28;20026;-75
2023/03/10 09:41:31;;;;;;;10.07;2.17;;;;;;;;;;4997736;28;20106;-75
2023/03/10 09:44:21;;;;;;;10.30;2.10;;;;;;;;;;5013916;28;20037;-76
2023/03/10 09:47:06;;;;;;;6.93;1.90;;;;;;;;;;5015089;28;20017;-76
2023/03/10 09:49:32;;;;;;;5.93;1.50;;;;;;;;;;5006978;28;20030;-76
2023/03/10 09:51:58;;;;;;;7.87;1.60;;;;;;;;;;5014585;28;20100;-75
2023/03/10 09:54:26;;;;;;;7.97;1.87;;;;;;;;;;5009764;28;20434;-76
2023/03/10 09:56:54;;;;;;;6.13;1.43;;;;;;;;;;5013741;28;20033;-75
2023/03/10 09:59:38;;;;;;;4.97;1.53;;;;;;;;;;4988313;28;20041;-75
2023/03/10 10:02:17;;;;;;;9.40;1.63;;;;;;;;;;5010715;28;20431;-76
2023/03/10 10:04:44;;;;;;;3.95;1.42;;;;;;;;;;5014185;28;20080;-76
2023/03/10 10:07:19;;;;;;;6.65;1.25;;;;;;;;;;5014193;28;20021;-75
2023/03/10 10:09:45;;;;;;;6.90;2.00;;;;;;;;;;4990690;28;20041;-76
2023/03/10 10:12:12;;;;;;;7.13;1.77;;;;;;;;;;5013988;28;20033;-76
2023/03/10 10:14:38;;;;;;;7.25;1.58;;;;;;;;;;5020280;28;20084;-76
2023/03/10 10:17:23;;;;;;;6.65;1.73;;;;;;;;;;5018707;28;20034;-76
2023/03/10 10:19:52;;;;;;;8.38;1.38;;;;;;;;;;5003637;28;20112;-76
2023/03/10 10:22:21;;;;;;;7.25;1.95;;;;;;;;;;5017840;28;20022;-75
2023/03/10 10:25:13;;;;;;;5.70;0.85;;;;;;;;;;5012233;28;20026;-76
2023/03/10 10:27:39;;;;;;;;;;;;;;;;;;5017719;28;20037;-75
2023/03/10 10:30:26;;;;;;;4.68;1.00;;;;;;;;;;5006019;28;19905;-75
2023/03/10 10:32:58;;;;;;;4.68;0.90;;;;;;;;;;5018139;28;20121;-76
2023/03/10 10:35:26;;;;;;;4.28;0.95;;;;;;;;;;5018015;28;20062;-75
2023/03/10 10:38:01;;;;;;;6.80;1.83;;;;;;;;;;5008059;28;20034;-76
2023/03/10 10:40:29;;;;;;;3.50;1.15;;;;;;;;;;5000687;28;20040;-75
2023/03/10 10:42:57;;;;;;;4.85;1.25;;;;;;;;;;5005216;28;20033;-75
2023/03/10 10:45:29;;;;;;;5.93;1.10;;;;;;;;;;5000883;28;20350;-75
2023/03/10 10:47:55;;;;;;;3.72;1.40;;;;;;;;;;5016843;28;20476;-75
2023/03/10 10:50:21;;;;;;;5.55;1.00;;;;;;;;;;5018153;28;20014;-76
2023/03/10 10:52:52;;;;;;;3.57;0.73;;;;;;;;;;5017061;28;20403;-76
2023/03/10 10:55:34;;;;;;;5.83;1.10;;;;;;;;;;5016979;28;20328;-76
2023/03/10 10:58:01;;;;;;;4.53;2.13;;;;;;;;;;5018113;28;20028;-75
2023/03/10 11:00:31;;;;;;;6.73;1.10;;;;;;;;;;5017925;28;20427;-74
2023/03/10 11:02:57;;;;;;;3.97;1.00;;;;;;;;;;5013872;28;20026;-75
2023/03/10 11:05:37;;;;;;;4.40;1.03;;;;;;;;;;5016973;28;20014;-75
2023/03/10 11:08:36;;;;;;;6.87;1.20;;;;;;;;;;5005356;28;20034;-75
2023/03/10 11:11:07;;;;;;;4.97;1.00;;;;;;;;;;5011997;28;20054;-75
2023/03/10 11:13:45;;;;;;;4.73;1.27;;;;;;;;;;4997261;28;20023;-75
2023/03/10 11:16:16;;;;;;;2.97;0.70;;;;;;;;;;5016871;28;20493;-75
2023/03/10 11:19:02;;;;;;;6.23;2.00;;;;;;;;;;5016590;28;20044;-75
2023/03/10 11:21:29;;;;;;;5.20;1.70;;;;;;;;;;5002650;28;20030;-75
2023/03/10 11:24:04;;;;;;;6.77;3.43;;;;;;;;;;4997263;28;20041;-75
2023/03/10 11:26:30;;;;;;;2.87;1.00;;;;;;;;;;5011244;28;20026;-75
2023/03/10 11:28:59;;;;;;;6.53;1.40;;;;;;;;;;5000134;28;20024;-75
2023/03/10 11:31:25;;;;;;;3.93;1.67;;;;;;;;;;5009259;28;20030;-74
2023/03/10 11:33:58;;;;;;;5.67;2.23;;;;;;;;;;5016226;28;20072;-75
2023/03/10 11:36:43;;;;;;;9.43;1.27;;;;;;;;;;4999565;28;20056;-75
2023/03/10 11:39:18;;;;;;;5.30;1.50;;;;;;;;;;5012924;28;20030;-75
2023/03/10 11:41:48;;;;;;;5.30;2.00;;;;;;;;;;4998238;28;20033;-75
2023/03/10 11:44:21;;;;;;;4.97;1.30;;;;;;;;;;4996624;28;20498;-75
2023/03/10 11:46:56;;;;;;;3.43;1.20;;;;;;;;;;5015999;28;20022;-75
2023/03/10 11:49:26;;;;;;;6.33;3.10;;;;;;;;;;5016817;28;20022;-75
2023/03/10 11:52:13;;;;;;;4.40;2.10;;;;;;;;;;5014701;28;20026;-75
2023/03/10 11:54:43;;;;;;;4.00;1.63;;;;;;;;;;5016386;28;20501;-74
2023/03/10 11:57:19;;;;;;;6.57;1.33;;;;;;;;;;5013845;28;20040;-75
2023/03/10 11:59:54;;;;;;;3.87;1.00;;;;;;;;;;4999272;28;20025;-75
2023/03/10 12:02:42;;;;;;;5.27;1.50;;;;;;;;;;5012508;28;20046;-75
2023/03/10 12:05:08;;;;;;;4.93;1.07;;;;;;;;;;5015407;28;20485;-74
2023/03/10 12:07:37;;;;;;;4.77;1.10;;;;;;;;;;4999140;28;20017;-74
2023/03/10 12:10:06;;;;;;;3.13;0.90;;;;;;;;;;5015953;28;20030;-74
2023/03/10 12:12:37;;;;;;;5.77;1.30;;;;;;;;;;5015446;28;20033;-74
2023/03/10 12:15:17;;;;;;;7.30;1.80;;;;;;;;;;4998972;28;20033;-74
2023/03/10 12:17:44;;;;;;;5.07;1.00;;;;;;;;;;5015807;28;20029;-74
2023/03/10 12:20:14;;;;;;;8.10;1.87;;;;;;;;;;5011846;28;20030;-74
2023/03/10 12:22:49;;;;;;;3.83;2.00;;;;;;;;;;5015350;28;20461;-75
2023/03/10 12:25:27;;;;;;;4.17;1.53;;;;;;;;;;5001956;28;20304;-75
2023/03/10 12:28:13;;;;;;;3.47;0.93;;;;;;;;;;5012444;28;20045;-75
2023/03/10 12:30:51;;;;;;;5.57;1.10;;;;;;;;;;5001458;28;20034;-74
2023/03/10 12:33:43;;;;;;;3.57;1.13;;;;;;;;;;5010295;28;20410;-75
2023/03/10 12:36:24;;;;;;;1.77;1.02;;;;;;;;;;5015429;28;20359;-75
2023/03/10 12:38:53;;;;;;;2.33;0.97;;;;;;;;;;5011547;28;20018;-75
2023/03/10 12:41:25;;;;;;;2.50;1.10;;;;;;;;;;5015745;28;20664;-75
2023/03/10 12:44:02;;;;;;;3.40;1.30;;;;;;;;;;5014639;28;20080;-75
2023/03/10 12:46:42;;;;;;;5.97;1.50;;;;;;;;;;4998668;28;20029;-75
2023/03/10 12:49:23;;;;;;;1.87;0.90;;;;;;;;;;5014492;28;20033;-75
2023/03/10 12:51:53;;;;;;;2.73;1.23;;;;;;;;;;5011217;28;20029;-75
2023/03/10 12:54:22;;;;;;;4.30;1.50;;;;;;;;;;5009904;28;20053;-74
2023/03/10 12:56:51;;;;;;;1.73;0.80;;;;;;;;;;5009251;28;20034;-74
2023/03/10 12:59:21;;;;;;;3.27;0.93;;;;;;;;;;5012739;28;20099;-74
2023/03/10 13:01:48;;;;;;;3.83;1.27;;;;;;;;;;4999307;28;20034;-75
2023/03/10 13:04:17;;;;;;;4.47;1.00;;;;;;;;;;5010002;28;20528;-75
2023/03/10 13:06:44;;;;;;;3.90;1.40;;;;;;;;;;4995889;28;20117;-74
2023/03/10 13:09:25;;;;;;;3.93;1.10;;;;;;;;;;4995799;28;20034;-74
2023/03/10 13:11:55;;;;;;;1.77;1.00;;;;;;;;;;5004951;28;20030;-75
2023/03/10 13:14:32;;;;;;;3.97;1.30;;;;;;;;;;5004282;28;20458;-74
2023/03/10 13:16:59;;;;;;;4.23;1.27;;;;;;;;;;5010145;28;20033;-74
2023/03/10 13:19:38;;;;;;;3.70;1.60;;;;;;;;;;5011412;28;20030;-74
2023/03/10 13:22:04;;;;;;;4.30;1.60;;;;;;;;;;4992760;28;20038;-74
2023/03/10 13:24:30;;;;;;;3.57;1.57;;;;;;;;;;5010418;28;20339;-75
2023/03/10 13:27:12;;;;;;;4.20;1.80;;;;;;;;;;4992802;28;20029;-74
2023/03/10 13:29:38;;;;;;;2.60;1.77;;;;;;;;;;5008706;28;20109;-74
2023/03/10 13:32:05;;;;;;;2.43;1.20;;;;;;;;;;4996451;28;20053;-74
2023/03/10 13:34:32;;;;;;;4.13;1.30;;;;;;;;;;5010611;28;20042;-74
2023/03/10 13:37:07;;;;;;;3.53;1.27;;;;;;;;;;5013740;28;20051;-74
2023/03/10 13:39:33;;;;;;;2.97;0.90;;;;;;;;;;5008984;28;20034;-74
2023/03/10 13:42:05;;;;;;;2.00;1.00;;;;;;;;;;5009640;28;20045;-74
2023/03/10 13:44:37;;;;;;;3.60;1.17;;;;;;;;;;5010569;28;20029;-74
2023/03/10 13:47:12;;;;;;;3.77;0.67;;;;;;;;;;5010447;28;20095;-73
2023/03/10 13:49:38;;;;;;;1.83;0.60;;;;;;;;;;4993294;28;20037;-74
2023/03/10 13:52:08;;;;;;;1.77;1.17;;;;;;;;;;5007217;28;20041;-74
2023/03/10 13:54:36;;;;;;;1.93;1.10;;;;;;;;;;5006642;28;20120;-74
2023/03/10 13:57:11;;;;;;;0.90;0.80;;;;;;;;;;4997383;28;20029;-73
2023/03/10 13:59:37;;;;;;;1.13;0.90;;;;;;;;;;5007216;28;20047;-74
2023/03/10 14:02:04;;;;;;;2.77;1.03;;;;;;;;;;4993764;28;20022;-73
2023/03/10 14:04:42;;;;;;;1.70;0.83;;;;;;;;;;5010820;28;20026;-73
2023/03/10 14:07:11;;;;;;;0.93;0.57;;;;;;;;;;4993618;28;20045;-73
2023/03/10 14:09:40;;;;;;;1.33;0.80;;;;;;;;;;4994365;28;20036;-74
2023/03/10 14:12:06;;;;;;;0.60;0.60;;;;;;;;;;5009200;28;20521;-74
2023/03/10 14:14:34;;;;;;;0.67;0.67;;;;;;;;;;5010842;28;20079;-74
2023/03/10 14:17:02;;;;;;;3.10;0.60;;;;;;;;;;4988406;28;20056;-74
2023/03/10 14:19:40;;;;;;;3.13;0.60;;;;;;;;;;5003489;28;20034;-74
2023/03/10 14:22:23;;;;;;;1.03;0.67;;;;;;;;;;5010527;28;20029;-73
2023/03/10 14:24:49;;;;;;;2.05;0.47;;;;;;;;;;4997751;28;20129;-74
2023/03/10 14:27:16;;;;;;;1.70;0.60;;;;;;;;;;5009918;28;20088;-74
2023/03/10 14:29:47;;;;;;;3.63;0.60;;;;;;;;;;5010566;28;20029;-74
2023/03/10 14:32:13;;;;;;;0.38;0.20;;;;;;;;;;5004770;28;20163;-74
2023/03/10 14:34:39;;;;;;;1.20;0.50;;;;;;;;;;5010776;28;20120;-74
2023/03/10 14:37:05;;;;;;;0.97;0.30;;;;;;;;;;5014274;28;20022;-74
2023/03/10 14:39:34;;;;;;;0.37;0.30;;;;;;;;;;4996700;28;20033;-73
2023/03/10 14:42:01;;;;;;;0.50;0.20;;;;;;;;;;4999554;28;20040;-74
2023/03/10 14:44:27;;;;;;;0.30;0.30;;;;;;;;;;5010047;28;20121;-74
2023/03/10 14:46:53;;;;;;;0.40;0.20;;;;;;;;;;4994888;28;20097;-75
2023/03/10 14:49:21;;;;;;;0.60;0.27;;;;;;;;;;5009792;28;20033;-74